Time;durP1;ratioP1;P1;durP2;ratioP2;P2;SDS_P1;SDS_P2;PMS_P1;PMS_P2;Temp;Humidity;BMP_temperature;BMP_pressure;BME280_temperature;BME280_humidity;BME280_pressure;Samples;Min_cycle;Max_cycle;Signal;HPM_P1;HPM_P2
2022/08/18 00:00:37;;;;;;;10.33;4.97;;;23.10;99.90;;;;;;5125676;28;20383;-82
2022/08/18 00:03:22;;;;;;;9.23;5.30;;;23.10;99.90;;;;;;5125987;28;20417;-81
2022/08/18 00:06:06;;;;;;;8.47;4.80;;;23.00;99.90;;;;;;5125603;28;20688;-82
2022/08/18 00:08:51;;;;;;;6.77;6.07;;;23.00;99.90;;;;;;5125582;28;20794;-81
2022/08/18 00:11:39;;;;;;;9.47;6.27;;;23.00;99.90;;;;;;5126406;28;20391;-81
2022/08/18 00:14:23;;;;;;;10.37;5.53;;;23.00;99.90;;;;;;5125756;28;20383;-81
2022/08/18 00:17:08;;;;;;;8.57;6.50;;;23.00;99.90;;;;;;5110308;28;20391;-82
2022/08/18 00:19:52;;;;;;;6.60;4.97;;;22.90;99.90;;;;;;5126029;28;20387;-81
2022/08/18 00:22:38;;;;;;;6.37;5.20;;;22.80;99.90;;;;;;5126365;28;20436;-81
2022/08/18 00:25:23;;;;;;;8.33;5.77;;;22.70;99.90;;;;;;5110277;28;20449;-81
2022/08/18 00:28:07;;;;;;;4.60;4.20;;;22.60;99.90;;;;;;5125614;28;20484;-81
2022/08/18 00:30:51;;;;;;;6.13;4.73;;;22.60;99.90;;;;;;5126355;28;20402;-82
2022/08/18 00:33:35;;;;;;;6.97;6.27;;;22.70;99.90;;;;;;5125878;28;20388;-82
2022/08/18 00:36:20;;;;;;;7.27;6.20;;;22.80;99.90;;;;;;5125869;28;20503;-81
2022/08/18 00:39:04;;;;;;;6.43;5.30;;;23.00;99.90;;;;;;5125941;28;20417;-82
2022/08/18 00:41:49;;;;;;;5.20;4.70;;;22.90;99.90;;;;;;5126611;28;20442;-81
2022/08/18 00:44:33;;;;;;;14.03;6.00;;;22.90;99.90;;;;;;5129859;28;20447;-81
2022/08/18 00:47:18;;;;;;;8.30;5.00;;;22.80;99.90;;;;;;5125831;28;20387;-82
2022/08/18 00:50:02;;;;;;;5.97;5.03;;;22.80;99.90;;;;;;5124365;28;20379;-81
2022/08/18 00:52:53;;;;;;;5.90;5.40;;;22.80;99.90;;;;;;5124656;28;20375;-81
2022/08/18 00:55:39;;;;;;;10.23;5.30;;;22.80;99.90;;;;;;5124841;28;20407;-81
2022/08/18 00:58:29;;;;;;;5.43;4.93;;;22.70;99.90;;;;;;5125595;28;20387;-81
2022/08/18 01:01:15;;;;;;;6.23;5.07;;;22.80;99.90;;;;;;5125072;28;20379;-81
2022/08/18 01:04:11;;;;;;;7.43;5.90;;;22.70;99.90;;;;;;5125497;28;20437;-81
2022/08/18 01:07:04;;;;;;;6.70;5.53;;;22.80;99.90;;;;;;5125299;28;20383;-82
2022/08/18 01:09:50;;;;;;;9.13;5.23;;;22.80;99.90;;;;;;5124900;28;20703;-81
2022/08/18 01:12:36;;;;;;;7.50;4.87;;;22.80;99.90;;;;;;5125004;28;20426;-81
2022/08/18 01:15:23;;;;;;;9.63;6.03;;;22.80;99.90;;;;;;5126360;28;20444;-82
2022/08/18 01:27:35;;;;;;;5.03;4.50;;;22.20;99.90;;;;;;5124847;28;20398;-82
2022/08/18 01:30:24;;;;;;;4.73;3.93;;;22.50;99.90;;;;;;5125704;28;20383;-81
2022/08/18 01:33:11;;;;;;;7.63;4.97;;;22.70;99.90;;;;;;5125749;28;20391;-81
2022/08/18 01:35:56;;;;;;;6.37;4.57;;;22.70;99.90;;;;;;5125461;28;20387;-81
2022/08/18 01:38:42;;;;;;;5.03;4.63;;;22.80;99.90;;;;;;5125836;28;20443;-82
2022/08/18 01:41:27;;;;;;;4.70;4.30;;;23.00;99.90;;;;;;5126222;28;20407;-81
2022/08/18 01:44:12;;;;;;;8.23;4.40;;;23.10;99.90;;;;;;5127403;28;20520;-81
2022/08/18 01:46:56;;;;;;;5.20;4.80;;;23.20;99.90;;;;;;5128209;28;20480;-80
2022/08/18 01:49:42;;;;;;;6.40;4.17;;;23.30;99.90;;;;;;5126959;28;20488;-81
2022/08/18 01:52:28;;;;;;;6.17;3.90;;;23.40;99.90;;;;;;5129473;28;20429;-81
2022/08/18 01:55:14;;;;;;;5.93;5.47;;;23.50;99.90;;;;;;5129226;28;20375;-81
2022/08/18 01:58:00;;;;;;;7.57;4.90;;;23.50;99.90;;;;;;5124569;28;20413;-80
2022/08/18 02:00:44;;;;;;;4.33;3.93;;;23.50;99.90;;;;;;5124818;28;20429;-81
2022/08/18 02:03:34;;;;;;;5.57;5.07;;;23.50;99.90;;;;;;5124570;28;20498;-81
2022/08/18 02:06:19;;;;;;;5.83;4.60;;;23.50;99.90;;;;;;5125111;28;20903;-80
2022/08/18 02:09:04;;;;;;;5.33;4.27;;;23.50;99.90;;;;;;5135892;28;20443;-78
2022/08/18 02:11:48;;;;;;;5.70;5.10;;;23.50;99.90;;;;;;5138093;28;20399;-78
2022/08/18 02:14:34;;;;;;;4.97;4.57;;;23.40;99.90;;;;;;5138217;28;20380;-78
2022/08/18 02:17:19;;;;;;;5.03;4.20;;;23.50;99.90;;;;;;5140194;28;20398;-78
2022/08/18 02:20:05;;;;;;;8.30;5.20;;;23.40;99.90;;;;;;5141674;28;20475;-78
2022/08/18 02:22:51;;;;;;;5.47;4.97;;;23.40;99.90;;;;;;5139842;28;20379;-78
2022/08/18 02:25:36;;;;;;;8.33;5.37;;;23.40;99.90;;;;;;5139465;27;20414;-80
2022/08/18 02:28:21;;;;;;;4.37;4.07;;;23.40;99.90;;;;;;5134814;28;20464;-78
2022/08/18 02:31:13;;;;;;;4.83;4.40;;;23.40;99.90;;;;;;5121898;28;20371;-79
2022/08/18 02:33:58;;;;;;;4.73;4.33;;;23.40;99.90;;;;;;5123112;28;20403;-79
2022/08/18 02:36:43;;;;;;;7.17;5.17;;;23.30;99.90;;;;;;5138412;28;20394;-79
2022/08/18 02:39:29;;;;;;;5.50;5.10;;;23.30;99.90;;;;;;5139286;28;20384;-79
2022/08/18 02:42:13;;;;;;;5.10;4.70;;;23.30;99.90;;;;;;5139493;28;20813;-79
2022/08/18 02:44:58;;;;;;;5.37;4.87;;;23.20;99.90;;;;;;5138668;28;20450;-79
2022/08/18 02:47:43;;;;;;;5.53;5.00;;;23.30;99.90;;;;;;5138424;28;20525;-79
2022/08/18 02:50:28;;;;;;;6.40;5.90;;;23.20;99.90;;;;;;5139042;28;20367;-79
2022/08/18 02:53:21;;;;;;;5.40;4.90;;;23.20;99.90;;;;;;5139375;28;20378;-79
2022/08/18 02:56:19;;;;;;;5.00;4.60;;;23.00;99.90;;;;;;5123932;28;20444;-79
2022/08/18 02:59:07;;;;;;;7.20;5.20;;;23.00;99.90;;;;;;5124698;28;20374;-79
2022/08/18 03:01:54;;;;;;;5.17;4.77;;;23.10;99.90;;;;;;5124283;28;20402;-79
2022/08/18 03:04:39;;;;;;;5.87;5.37;;;23.10;99.90;;;;;;5139124;28;20395;-79
2022/08/18 03:07:24;;;;;;;6.90;4.77;;;23.10;99.90;;;;;;5139864;28;20441;-80
2022/08/18 03:10:09;;;;;;;5.53;5.10;;;23.00;99.90;;;;;;5123955;28;20383;-79
2022/08/18 03:12:53;;;;;;;5.70;5.10;;;22.90;99.90;;;;;;5130530;28;20403;-82
2022/08/18 03:15:37;;;;;;;6.80;6.13;;;22.80;99.90;;;;;;5128156;28;20379;-81
2022/08/18 03:18:22;;;;;;;4.70;4.40;;;22.70;99.90;;;;;;5128277;28;20379;-81
2022/08/18 03:21:08;;;;;;;6.17;5.57;;;22.60;99.90;;;;;;5127632;28;20931;-81
2022/08/18 03:23:55;;;;;;;6.13;5.60;;;22.70;99.90;;;;;;5127783;28;20380;-82
2022/08/18 03:26:43;;;;;;;6.33;5.73;;;22.80;99.90;;;;;;5114650;28;20390;-79
2022/08/18 03:29:28;;;;;;;6.40;5.70;;;22.80;99.90;;;;;;5123034;28;20433;-79
2022/08/18 03:32:12;;;;;;;6.95;4.97;;;22.90;99.90;;;;;;5138612;28;20410;-79
2022/08/18 03:34:58;;;;;;;7.20;5.87;;;22.90;99.90;;;;;;5138823;28;20179;-79
2022/08/18 03:37:43;;;;;;;6.53;5.90;;;23.00;99.90;;;;;;5138496;28;20379;-79
2022/08/18 03:40:28;;;;;;;7.47;5.80;;;23.00;99.90;;;;;;5138465;28;20398;-80
2022/08/18 03:43:12;;;;;;;16.43;7.20;;;23.00;99.90;;;;;;5134671;28;20399;-82
2022/08/18 03:46:02;;;;;;;6.57;5.43;;;22.70;99.90;;;;;;5122411;28;20470;-82
2022/08/18 03:48:48;;;;;;;5.93;5.43;;;22.80;99.90;;;;;;5123780;27;20447;-81
2022/08/18 03:51:34;;;;;;;6.10;5.50;;;22.90;99.90;;;;;;5118857;28;20432;-81
2022/08/18 03:54:18;;;;;;;5.93;5.53;;;22.90;99.90;;;;;;5126970;28;20387;-81
2022/08/18 03:57:02;;;;;;;5.90;5.40;;;22.90;99.90;;;;;;5123842;27;20426;-81
2022/08/18 03:59:47;;;;;;;6.07;5.47;;;22.80;99.90;;;;;;5147472;27;20892;-82
2022/08/18 04:02:31;;;;;;;5.43;5.03;;;22.80;99.90;;;;;;5147960;27;20386;-82
2022/08/18 04:05:16;;;;;;;6.07;5.47;;;22.80;99.90;;;;;;5147336;27;20866;-81
2022/08/18 04:08:03;;;;;;;5.63;5.23;;;22.70;99.90;;;;;;5146736;27;20451;-81
2022/08/18 04:10:47;;;;;;;6.67;6.00;;;22.70;99.90;;;;;;5147343;27;20381;-81
2022/08/18 04:13:35;;;;;;;5.57;5.10;;;22.70;99.90;;;;;;5147029;27;20374;-81
2022/08/18 04:16:19;;;;;;;6.80;6.20;;;22.60;99.90;;;;;;5131588;27;20390;-81
2022/08/18 04:19:04;;;;;;;6.57;6.00;;;22.50;99.90;;;;;;5146979;27;20428;-81
2022/08/18 04:21:52;;;;;;;7.50;6.60;;;22.50;99.90;;;;;;5130857;27;20397;-81
2022/08/18 04:24:36;;;;;;;6.67;6.07;;;22.40;99.90;;;;;;5147351;27;20383;-81
2022/08/18 04:27:21;;;;;;;5.80;5.30;;;22.50;99.90;;;;;;5147469;27;20410;-81
2022/08/18 04:30:07;;;;;;;8.13;6.37;;;22.40;99.90;;;;;;5148685;27;20378;-81
2022/08/18 04:32:51;;;;;;;8.00;7.40;;;22.40;99.90;;;;;;5149046;27;20429;-80
2022/08/18 04:35:36;;;;;;;7.33;6.70;;;22.30;99.90;;;;;;5148686;27;20374;-80
2022/08/18 04:38:22;;;;;;;7.03;6.30;;;22.20;99.90;;;;;;5149465;27;20408;-79
2022/08/18 04:41:08;;;;;;;6.93;6.37;;;22.10;99.90;;;;;;5145336;27;20371;-77
2022/08/18 04:43:57;;;;;;;7.70;7.10;;;22.10;99.90;;;;;;5159894;27;20497;-80
2022/08/18 04:46:45;;;;;;;7.40;6.60;;;21.90;99.90;;;;;;5159849;27;20389;-79
2022/08/18 04:49:30;;;;;;;7.70;7.00;;;21.80;99.90;;;;;;5159651;27;20449;-79
2022/08/18 04:55:10;;;;;;;8.03;7.30;;;21.70;99.90;;;;;;5155184;27;20426;-81
2022/08/18 04:57:56;;;;;;;7.77;7.10;;;21.70;99.90;;;;;;5146835;27;20428;-81
2022/08/18 05:00:42;;;;;;;7.67;6.53;;;21.70;99.90;;;;;;5147063;27;20418;-81
2022/08/18 05:03:27;;;;;;;8.37;7.37;;;21.80;99.90;;;;;;5147328;27;20470;-81
2022/08/18 05:06:11;;;;;;;9.03;7.27;;;21.80;99.90;;;;;;5147229;27;20397;-81
2022/08/18 05:08:59;;;;;;;9.60;7.43;;;21.80;99.90;;;;;;5147464;27;20445;-81
2022/08/18 05:11:44;;;;;;;8.17;7.47;;;21.50;99.90;;;;;;5131399;27;20445;-80
2022/08/18 05:14:28;;;;;;;7.10;6.40;;;21.40;99.90;;;;;;5146626;27;20766;-80
2022/08/18 05:17:14;;;;;;;9.10;8.20;;;21.00;99.90;;;;;;5146832;27;20502;-81
2022/08/18 05:19:59;;;;;;;8.27;7.37;;;21.20;99.90;;;;;;5146053;27;20514;-81
2022/08/18 05:22:44;;;;;;;10.37;8.50;;;21.50;99.90;;;;;;5145894;27;20418;-80
2022/08/18 05:25:28;;;;;;;8.20;7.40;;;21.60;99.90;;;;;;5144603;27;20943;-80
2022/08/18 05:28:13;;;;;;;8.43;7.63;;;21.70;99.90;;;;;;5145857;28;20461;-81
2022/08/18 05:30:57;;;;;;;9.77;7.87;;;21.80;99.90;;;;;;5113261;28;20435;-81
2022/08/18 05:33:42;;;;;;;10.03;7.40;;;21.80;99.90;;;;;;5122705;28;20520;-81
2022/08/18 05:36:56;;;;;;;9.57;8.77;;;21.80;99.90;;;;;;5110897;28;20489;-81
2022/08/18 05:39:55;;;;;;;11.20;9.00;;;21.80;99.90;;;;;;5104707;28;20439;-80
2022/08/18 05:42:41;;;;;;;10.43;9.17;;;21.70;99.90;;;;;;5087015;28;20459;-80
2022/08/18 05:45:26;;;;;;;18.37;8.87;;;21.40;99.90;;;;;;5095476;28;20569;-79
2022/08/18 05:48:18;;;;;;;10.17;9.17;;;21.40;99.90;;;;;;5104588;28;20477;-80
2022/08/18 05:51:13;;;;;;;9.47;8.20;;;21.10;99.90;;;;;;5111293;28;20472;-78
2022/08/18 05:56:55;;;;;;;10.50;8.53;;;20.70;99.90;;;;;;5118554;28;20447;-81
2022/08/18 05:59:41;;;;;;;8.83;7.93;;;20.70;99.90;;;;;;5116473;28;20448;-81
2022/08/18 06:02:46;;;;;;;9.50;8.60;;;20.90;99.90;;;;;;5112783;28;20431;-80
2022/08/18 06:05:34;;;;;;;14.30;9.27;;;21.00;99.90;;;;;;5117827;28;20438;-79
2022/08/18 06:08:22;;;;;;;10.70;8.90;;;20.80;99.90;;;;;;5118153;28;20462;-79
2022/08/18 06:11:07;;;;;;;10.60;8.30;;;20.90;99.90;;;;;;5119444;28;20414;-81
2022/08/18 06:13:51;;;;;;;10.60;7.90;;;20.90;99.90;;;;;;5111210;28;20435;-81
2022/08/18 06:17:08;;;;;;;11.70;8.80;;;20.90;99.90;;;;;;5104922;28;20473;-82
2022/08/18 06:20:09;;;;;;;12.40;8.93;;;21.00;99.90;;;;;;5061176;28;20451;-81
2022/08/18 06:23:11;;;;;;;13.10;9.03;;;21.30;99.90;;;;;;5056227;28;20488;-81
2022/08/18 06:26:12;;;;;;;10.50;8.80;;;21.40;99.90;;;;;;5056679;28;20918;-81
2022/08/18 06:29:15;;;;;;;11.80;10.60;;;21.40;99.90;;;;;;5058084;28;20612;-81
2022/08/18 06:32:12;;;;;;;10.87;9.50;;;21.50;99.90;;;;;;5048398;28;20985;-80
2022/08/18 06:35:17;;;;;;;14.60;9.00;;;21.60;99.90;;;;;;5053254;28;20461;-81
2022/08/18 06:41:43;;;;;;;10.53;8.87;;;21.80;99.90;;;;;;5054586;28;20452;-81
2022/08/18 06:44:45;;;;;;;11.70;9.50;;;21.90;99.90;;;;;;5065620;28;20490;-81
2022/08/18 06:47:52;;;;;;;12.83;10.53;;;21.90;99.90;;;;;;5049007;28;20457;-81
2022/08/18 06:50:49;;;;;;;8.93;8.03;;;21.80;99.90;;;;;;5086147;28;20442;-81
2022/08/18 06:53:53;;;;;;;10.63;9.53;;;21.90;99.90;;;;;;5108092;27;20439;-80
2022/08/18 06:56:49;;;;;;;10.63;9.57;;;22.10;99.90;;;;;;5107444;28;20889;-81
2022/08/18 06:59:35;;;;;;;9.67;8.23;;;22.20;99.90;;;;;;5104754;28;20439;-81
2022/08/18 07:02:24;;;;;;;11.70;9.60;;;22.10;99.90;;;;;;5110123;28;20423;-80
2022/08/18 07:05:19;;;;;;;9.37;8.47;;;22.20;99.90;;;;;;5112133;28;20439;-79
2022/08/18 07:08:19;;;;;;;10.97;9.40;;;22.10;99.90;;;;;;5108519;27;20450;-81
2022/08/18 07:11:23;;;;;;;9.83;8.83;;;22.10;99.90;;;;;;5112092;28;20584;-79
2022/08/18 07:14:24;;;;;;;11.30;10.27;;;21.50;99.90;;;;;;5112167;27;20439;-81
2022/08/18 07:17:13;;;;;;;12.63;9.03;;;22.00;99.90;;;;;;5089265;28;20435;-81
2022/08/18 07:20:05;;;;;;;12.87;10.90;;;22.30;99.90;;;;;;5108043;28;20738;-81
2022/08/18 07:23:05;;;;;;;11.57;10.13;;;22.50;99.90;;;;;;5104517;28;20434;-81
2022/08/18 07:25:58;;;;;;;14.43;9.93;;;22.60;99.90;;;;;;5107632;28;20490;-82
2022/08/18 07:28:47;;;;;;;10.23;9.30;;;22.80;99.90;;;;;;5105589;28;20454;-80
2022/08/18 07:31:48;;;;;;;11.30;8.70;;;23.00;99.90;;;;;;5107344;27;20526;-79
2022/08/18 07:34:39;;;;;;;11.60;9.63;;;23.00;99.90;;;;;;5100421;28;20490;-79
2022/08/18 07:37:28;;;;;;;10.00;9.20;;;23.00;99.90;;;;;;5111911;28;20454;-79
2022/08/18 07:40:28;;;;;;;15.13;9.20;;;23.00;99.90;;;;;;5118276;28;20449;-82
2022/08/18 07:43:27;;;;;;;8.10;7.30;;;23.10;99.90;;;;;;5120692;27;20434;-77
2022/08/18 07:46:30;;;;;;;12.07;8.67;;;23.20;99.90;;;;;;5111812;28;20435;-80
2022/08/18 07:49:19;;;;;;;10.90;9.90;;;22.90;99.90;;;;;;5105979;28;20505;-81
2022/08/18 07:52:10;;;;;;;11.93;9.00;;;23.10;99.90;;;;;;5104315;27;20427;-82
2022/08/18 07:55:12;;;;;;;11.73;9.73;;;23.20;99.90;;;;;;5099637;28;20513;-82
2022/08/18 07:58:28;;;;;;;10.93;7.67;;;23.40;99.90;;;;;;5100312;28;20419;-81
2022/08/18 08:01:34;;;;;;;8.47;7.77;;;23.10;99.90;;;;;;5105113;27;20431;-80
2022/08/18 08:04:38;;;;;;;10.30;8.43;;;23.40;99.90;;;;;;5107875;28;20982;-80
2022/08/18 08:07:28;;;;;;;11.20;8.40;;;22.80;99.90;;;;;;5098058;28;20435;-80
2022/08/18 08:10:30;;;;;;;11.57;9.10;;;23.30;99.90;;;;;;5098646;27;20442;-80
2022/08/18 08:13:30;;;;;;;9.43;8.53;;;23.50;99.90;;;;;;5105207;28;20436;-81
2022/08/18 08:16:35;;;;;;;10.63;8.60;;;23.50;99.90;;;;;;5072394;28;20431;-79
2022/08/18 08:19:48;;;;;;;10.30;9.20;;;23.50;99.90;;;;;;5107845;28;20458;-79
2022/08/18 08:22:50;;;;;;;9.97;9.07;;;23.60;99.90;;;;;;5109327;28;20453;-80
2022/08/18 08:26:10;;;;;;;11.60;10.40;;;23.40;99.90;;;;;;5108843;28;20976;-80
2022/08/18 08:29:24;;;;;;;10.27;8.80;;;23.60;99.90;;;;;;5102008;28;20585;-80
2022/08/18 08:32:21;;;;;;;11.10;8.33;;;23.80;99.90;;;;;;5089916;28;20423;-82
2022/08/18 08:35:13;;;;;;;9.63;8.53;;;24.00;99.90;;;;;;5098832;28;20414;-80
2022/08/18 08:38:03;;;;;;;11.23;7.70;;;24.00;99.90;;;;;;5105986;28;20492;-80
2022/08/18 08:41:04;;;;;;;8.13;7.33;;;24.10;99.90;;;;;;5089826;28;20507;-82
2022/08/18 08:44:07;;;;;;;9.50;8.40;;;24.10;99.90;;;;;;5104096;28;20553;-81
2022/08/18 08:47:01;;;;;;;8.63;7.73;;;24.20;99.90;;;;;;5105048;27;20427;-82
2022/08/18 08:49:53;;;;;;;8.90;8.10;;;24.30;99.90;;;;;;5102281;28;20463;-79
2022/08/18 08:52:46;;;;;;;11.10;9.67;;;24.40;99.90;;;;;;5106931;27;20829;-80
2022/08/18 08:55:35;;;;;;;12.30;8.70;;;24.20;99.90;;;;;;5103434;28;20670;-80
2022/08/18 08:58:36;;;;;;;9.70;7.70;;;24.00;99.90;;;;;;5103693;28;20471;-82
2022/08/18 09:01:31;;;;;;;9.40;8.40;;;23.70;99.90;;;;;;5114520;27;20642;-81
2022/08/18 09:04:42;;;;;;;11.97;7.57;;;23.30;99.90;;;;;;5095607;28;20449;-80
2022/08/18 09:07:43;;;;;;;11.60;8.43;;;23.20;99.90;;;;;;5104777;28;20519;-82
2022/08/18 09:11:01;;;;;;;12.83;7.70;;;23.30;99.90;;;;;;5101973;27;20442;-81
2022/08/18 09:14:07;;;;;;;7.93;7.17;;;23.20;99.90;;;;;;5095965;28;20483;-81
2022/08/18 09:17:12;;;;;;;9.13;8.30;;;23.30;99.90;;;;;;5093261;28;20483;-81
2022/08/18 09:20:31;;;;;;;9.30;7.83;;;24.00;99.90;;;;;;5109147;28;20494;-82
2022/08/18 09:23:22;;;;;;;7.83;7.13;;;24.40;99.90;;;;;;5101426;28;20496;-81
2022/08/18 09:26:38;;;;;;;11.43;7.87;;;24.50;99.90;;;;;;5102751;28;20430;-81
2022/08/18 09:29:44;;;;;;;8.53;7.83;;;24.60;99.90;;;;;;5105763;28;20476;-82
2022/08/18 09:32:54;;;;;;;7.87;7.27;;;24.70;99.90;;;;;;5108535;28;20441;-81
2022/08/18 09:36:05;;;;;;;8.33;7.60;;;24.80;99.90;;;;;;5098168;28;20439;-81
2022/08/18 09:42:14;;;;;;;8.53;7.63;;;25.30;99.90;;;;;;5105223;28;20975;-82
2022/08/18 09:45:03;;;;;;;8.97;8.20;;;25.50;99.90;;;;;;5106991;28;20558;-81
2022/08/18 09:48:02;;;;;;;8.97;8.17;;;25.60;99.90;;;;;;5103371;28;20505;-81
2022/08/18 09:50:54;;;;;;;8.93;7.50;;;25.90;99.90;;;;;;5103708;28;20479;-80
2022/08/18 09:54:07;;;;;;;8.43;7.70;;;26.00;99.90;;;;;;5095315;28;20443;-79
2022/08/18 09:57:16;;;;;;;8.53;7.40;;;26.00;99.90;;;;;;5108393;28;20488;-79
2022/08/18 10:00:30;;;;;;;10.57;7.90;;;25.90;99.90;;;;;;5105920;28;20480;-81
2022/08/18 10:03:23;;;;;;;8.90;8.10;;;25.90;99.90;;;;;;5105311;28;20440;-80
2022/08/18 10:06:16;;;;;;;7.43;6.83;;;25.90;99.90;;;;;;5103331;28;20630;-82
2022/08/18 10:09:15;;;;;;;7.53;6.93;;;26.00;99.90;;;;;;5105029;28;20486;-81
2022/08/18 10:12:16;;;;;;;7.97;7.17;;;26.10;99.90;;;;;;5101598;28;20490;-80
2022/08/18 10:15:14;;;;;;;7.77;6.97;;;26.30;99.90;;;;;;5102218;28;20414;-81
2022/08/18 10:18:31;;;;;;;8.30;6.57;;;26.20;99.90;;;;;;5104693;28;20535;-81
2022/08/18 10:21:21;;;;;;;7.50;6.80;;;25.80;99.90;;;;;;5105143;28;22126;-80
2022/08/18 10:24:18;;;;;;;7.40;6.57;;;26.40;99.90;;;;;;5101389;28;20453;-81
2022/08/18 10:27:06;;;;;;;9.90;7.40;;;26.80;99.90;;;;;;5102067;28;20459;-80
2022/08/18 10:29:53;;;;;;;7.77;7.07;;;27.30;99.90;;;;;;5101497;28;20477;-81
2022/08/18 10:32:41;;;;;;;7.40;6.70;;;27.40;99.90;;;;;;5107357;28;20474;-80
2022/08/18 10:35:57;;;;;;;7.50;6.80;;;27.80;99.90;;;;;;5103135;28;20429;-81
2022/08/18 10:38:48;;;;;;;8.77;6.90;;;28.00;99.90;;;;;;5096730;28;20469;-81
2022/08/18 10:41:34;;;;;;;7.70;6.90;;;28.50;99.90;;;;;;5113898;27;20583;-81
2022/08/18 10:44:21;;;;;;;9.53;6.40;;;28.70;99.90;;;;;;5100212;28;20547;-80
2022/08/18 10:47:07;;;;;;;6.27;5.80;;;28.60;99.90;;;;;;5090512;28;20466;-81
2022/08/18 10:49:52;;;;;;;7.20;6.60;;;28.60;99.90;;;;;;5095657;28;20462;-82
2022/08/18 10:52:55;;;;;;;7.50;6.80;;;28.70;99.90;;;;;;5098343;28;20434;-81
2022/08/18 10:55:53;;;;;;;8.47;7.77;;;28.80;99.90;;;;;;5112138;28;20426;-79
2022/08/18 10:58:59;;;;;;;13.40;7.07;;;29.20;99.90;;;;;;5106801;28;20433;-81
2022/08/18 11:02:11;;;;;;;8.47;7.77;;;28.80;99.90;;;;;;5097735;27;20754;-81
2022/08/18 11:04:56;;;;;;;8.23;7.53;;;29.00;99.90;;;;;;5109885;28;20518;-82
2022/08/18 11:07:47;;;;;;;7.93;7.23;;;29.20;99.90;;;;;;5108400;28;20784;-81
2022/08/18 11:10:49;;;;;;;7.47;6.83;;;29.10;99.90;;;;;;5102956;28;20932;-80
2022/08/18 11:13:59;;;;;;;8.20;7.47;;;29.00;99.90;;;;;;5091286;28;20934;-80
2022/08/18 11:17:07;;;;;;;9.30;7.10;;;29.00;99.90;;;;;;5099295;28;20620;-79
2022/08/18 11:19:53;;;;;;;7.67;6.67;;;29.00;99.90;;;;;;5086473;28;20427;-80
2022/08/18 11:22:51;;;;;;;9.10;8.20;;;29.20;99.90;;;;;;5063090;28;20444;-81
2022/08/18 11:25:40;;;;;;;7.03;6.53;;;28.50;99.90;;;;;;5098899;28;20436;-79
2022/08/18 11:28:28;;;;;;;7.47;6.87;;;29.80;99.90;;;;;;5081036;28;20474;-80
2022/08/18 11:31:12;;;;;;;7.60;7.00;;;30.70;99.90;;;;;;5081492;28;20785;-80
2022/08/18 11:33:57;;;;;;;8.75;8.15;;;31.60;99.90;;;;;;5087790;28;20173;-80
2022/08/18 11:36:44;;;;;;;8.93;7.40;;;32.10;99.90;;;;;;5077414;28;20450;-80
2022/08/18 11:39:29;;;;;;;9.25;6.95;;;32.20;98.00;;;;;;5078889;28;20262;-80
2022/08/18 11:42:15;;;;;;;9.57;7.90;;;32.90;98.00;;;;;;5078233;28;20197;-80
2022/08/18 11:45:16;;;;;;;7.45;6.88;;;33.20;95.30;;;;;;5074883;28;20663;-79
2022/08/18 11:48:31;;;;;;;8.93;7.72;;;31.80;97.40;;;;;;5057727;28;20211;-79
2022/08/18 11:51:24;;;;;;;8.38;7.63;;;32.40;94.60;;;;;;5062781;28;20188;-81
2022/08/18 11:54:38;;;;;;;7.80;7.10;;;32.90;93.80;;;;;;5069676;28;20177;-79
2022/08/18 11:57:40;;;;;;;7.47;6.93;;;34.00;92.90;;;;;;5081456;28;20216;-79
2022/08/18 12:00:57;;;;;;;8.40;7.55;;;33.10;92.90;;;;;;5068730;28;20283;-79
2022/08/18 12:03:47;;;;;;;8.18;7.47;;;32.70;92.90;;;;;;5052330;28;20291;-80
2022/08/18 12:06:33;;;;;;;9.05;8.05;;;32.20;93.40;;;;;;5057648;28;20250;-81
2022/08/18 12:09:23;;;;;;;8.05;7.35;;;31.80;94.40;;;;;;5074664;28;20288;-82
2022/08/18 12:12:29;;;;;;;7.95;7.30;;;31.10;95.50;;;;;;5056926;28;20185;-80
2022/08/18 12:15:28;;;;;;;8.57;7.97;;;31.80;95.00;;;;;;5050811;28;20363;-80
2022/08/18 12:18:16;;;;;;;7.78;7.05;;;31.70;95.60;;;;;;5069727;28;20269;-81
2022/08/18 12:21:01;;;;;;;9.48;7.40;;;31.40;95.20;;;;;;5062517;28;20312;-82
2022/08/18 12:23:47;;;;;;;9.23;8.40;;;31.00;95.80;;;;;;5074887;28;20190;-81
2022/08/18 12:26:32;;;;;;;8.85;7.75;;;30.20;98.80;;;;;;5073215;28;20531;-80
2022/08/18 12:29:18;;;;;;;8.70;8.00;;;30.20;98.40;;;;;;5065587;28;20217;-79
2022/08/18 12:32:03;;;;;;;9.00;7.60;;;29.90;99.20;;;;;;5068325;28;20492;-81
2022/08/18 12:34:48;;;;;;;13.83;8.27;;;29.70;99.90;;;;;;5042353;28;20549;-81
2022/08/18 12:37:32;;;;;;;8.87;7.97;;;29.50;99.90;;;;;;5073783;28;20476;-81
2022/08/18 12:40:17;;;;;;;9.50;8.70;;;29.30;99.90;;;;;;5057585;28;20497;-81
2022/08/18 12:43:01;;;;;;;9.57;8.60;;;29.10;99.90;;;;;;5106049;28;20430;-80
2022/08/18 12:45:46;;;;;;;9.80;8.90;;;29.10;99.90;;;;;;5109305;28;20884;-81
2022/08/18 12:48:30;;;;;;;9.30;8.60;;;29.10;99.90;;;;;;5115512;28;20403;-81
2022/08/18 12:51:15;;;;;;;9.07;8.37;;;29.10;99.90;;;;;;5102903;28;20447;-82
2022/08/18 12:54:00;;;;;;;8.50;7.70;;;29.00;99.90;;;;;;5104410;28;20452;-82
2022/08/18 12:56:49;;;;;;;8.27;7.67;;;29.30;99.90;;;;;;5093445;28;21060;-79
2022/08/18 12:59:36;;;;;;;11.30;10.30;;;29.50;99.90;;;;;;5082638;28;21057;-81
2022/08/18 13:02:21;;;;;;;7.53;6.93;;;29.50;99.90;;;;;;5103027;28;20417;-82
2022/08/18 13:05:06;;;;;;;8.47;7.77;;;29.30;99.90;;;;;;5078373;28;20472;-82
2022/08/18 13:07:50;;;;;;;8.40;7.70;;;29.30;99.90;;;;;;5103556;28;20550;-81
2022/08/18 13:10:35;;;;;;;9.03;8.23;;;29.30;99.90;;;;;;5102194;28;20462;-81
2022/08/18 13:13:19;;;;;;;8.23;7.53;;;29.10;99.90;;;;;;5092287;28;20492;-79
2022/08/18 13:16:07;;;;;;;9.00;8.13;;;29.00;99.90;;;;;;5113298;28;20955;-80
2022/08/18 13:18:51;;;;;;;8.80;8.07;;;28.90;99.90;;;;;;5097484;28;20463;-80
2022/08/18 13:21:37;;;;;;;10.10;9.20;;;28.70;99.90;;;;;;5108607;28;20414;-80
2022/08/18 13:24:22;;;;;;;8.63;8.00;;;28.70;99.90;;;;;;5099749;28;20430;-78
2022/08/18 13:27:08;;;;;;;10.70;8.73;;;28.70;99.90;;;;;;5111087;28;20516;-80
2022/08/18 13:29:52;;;;;;;8.40;7.60;;;28.70;99.90;;;;;;5120114;28;20438;-78
2022/08/18 13:32:37;;;;;;;8.70;7.40;;;28.80;99.90;;;;;;5121788;28;20434;-81
2022/08/18 13:35:21;;;;;;;9.00;8.10;;;28.80;99.90;;;;;;5116686;28;20445;-78
2022/08/18 13:38:06;;;;;;;8.33;7.53;;;28.90;99.90;;;;;;5117213;28;20540;-80
2022/08/18 13:40:53;;;;;;;10.03;9.20;;;29.10;99.90;;;;;;5110512;28;20438;-80
2022/08/18 13:43:41;;;;;;;8.87;7.67;;;29.20;99.90;;;;;;5104050;28;20540;-80
2022/08/18 13:46:26;;;;;;;10.93;7.50;;;29.50;99.90;;;;;;5114901;28;20458;-81
2022/08/18 13:49:14;;;;;;;8.50;7.80;;;29.80;99.90;;;;;;5113425;28;20495;-81
2022/08/18 13:51:58;;;;;;;8.10;7.50;;;30.20;99.90;;;;;;5104925;28;20493;-80
2022/08/18 13:54:44;;;;;;;8.90;8.20;;;30.40;99.90;;;;;;5100962;28;20480;-79
2022/08/18 13:57:30;;;;;;;8.27;7.73;;;30.80;99.90;;;;;;5111821;28;20490;-82
2022/08/18 14:00:19;;;;;;;8.27;7.40;;;31.10;99.90;;;;;;5098854;28;20470;-80
2022/08/18 14:03:08;;;;;;;7.82;7.22;;;31.60;99.90;;;;;;5078900;28;20173;-79
2022/08/18 14:05:56;;;;;;;8.32;7.38;;;31.80;99.90;;;;;;5111053;28;20246;-81
2022/08/18 14:08:41;;;;;;;9.50;8.80;;;32.20;98.80;;;;;;5119082;28;20180;-82
2022/08/18 14:11:28;;;;;;;9.45;8.73;;;32.50;97.80;;;;;;5111639;28;20269;-79
2022/08/18 14:14:13;;;;;;;7.85;7.30;;;32.60;97.80;;;;;;5118553;28;20247;-80
2022/08/18 14:17:23;;;;;;;8.40;7.70;;;32.90;96.80;;;;;;5119135;27;20338;-80
2022/08/18 14:29:18;;;;;;;7.15;6.55;;;34.00;92.80;;;;;;5033244;28;20246;-79
2022/08/18 14:32:04;;;;;;;7.35;6.68;;;34.00;92.90;;;;;;5018022;28;20239;-79
2022/08/18 14:34:48;;;;;;;8.20;7.50;;;33.70;91.10;;;;;;5049146;28;20183;-80
2022/08/18 14:37:33;;;;;;;8.50;7.70;;;34.20;90.80;;;;;;5044093;28;20183;-81
2022/08/18 14:40:18;;;;;;;7.88;7.18;;;34.10;90.60;;;;;;5042574;28;20227;-78
2022/08/18 14:43:03;;;;;;;8.43;7.78;;;34.30;90.10;;;;;;5050238;28;20202;-79
2022/08/18 14:45:48;;;;;;;7.30;6.75;;;33.90;88.80;;;;;;5032787;28;20218;-81
2022/08/18 14:48:33;;;;;;;8.75;8.05;;;33.40;88.80;;;;;;5045999;28;20269;-82
2022/08/18 14:51:17;;;;;;;8.10;7.50;;;33.20;90.10;;;;;;5063729;28;20285;-81
2022/08/18 14:54:01;;;;;;;7.95;7.15;;;33.30;90.20;;;;;;5029169;28;20250;-81
2022/08/18 14:56:49;;;;;;;7.75;7.15;;;33.60;89.20;;;;;;5040471;28;20433;-79
2022/08/18 14:59:33;;;;;;;8.60;7.90;;;33.70;88.40;;;;;;5048828;28;20211;-79
2022/08/18 15:02:19;;;;;;;7.25;6.75;;;33.40;89.60;;;;;;5045426;27;20181;-79
2022/08/18 15:05:08;;;;;;;7.55;7.05;;;33.60;89.80;;;;;;5096021;28;20238;-79
2022/08/18 15:07:54;;;;;;;7.68;7.07;;;33.90;86.90;;;;;;5079367;28;20215;-79
2022/08/18 15:10:40;;;;;;;7.60;7.10;;;33.70;89.80;;;;;;5101446;28;20180;-80
2022/08/18 15:13:47;;;;;;;7.38;6.80;;;34.00;85.90;;;;;;5068685;28;20701;-80
2022/08/18 15:16:33;;;;;;;8.18;7.55;;;33.70;85.60;;;;;;5024394;28;20326;-80
2022/08/18 15:19:39;;;;;;;7.57;6.97;;;33.60;87.00;;;;;;5020556;28;20218;-80